Time;durP1;ratioP1;P1;durP2;ratioP2;P2;SDS_P1;SDS_P2;PMS_P1;PMS_P2;Temp;Humidity;BMP_temperature;BMP_pressure;BME280_temperature;BME280_humidity;BME280_pressure;Samples;Min_cycle;Max_cycle;Signal;HPM_P1;HPM_P2
2023/03/11 00:00:44;;;;;;;6.15;5.47;;;;;;;-0.16;79.11;97023.96;1779060;78;21081;-58
2023/03/11 00:03:15;;;;;;;7.85;5.62;;;;;;;-0.14;79.23;97023.45;1779281;79;21033;-58
2023/03/11 00:05:44;;;;;;;6.47;5.05;;;;;;;-0.12;79.21;97013.09;1778931;79;20986;-58
2023/03/11 00:08:16;;;;;;;7.22;5.05;;;;;;;-0.11;79.25;97012.18;1777431;79;21053;-58
2023/03/11 00:10:46;;;;;;;7.15;5.03;;;;;;;-0.10;79.06;97008.73;1776880;78;21001;-59
2023/03/11 00:13:16;;;;;;;7.53;5.10;;;;;;;-0.10;79.28;97010.02;1782001;79;21050;-60
2023/03/11 00:15:47;;;;;;;5.30;4.42;;;;;;;-0.06;79.35;97007.67;1779973;79;21596;-59
2023/03/11 00:18:14;;;;;;;6.55;4.33;;;;;;;-0.06;79.24;97012.80;1783202;79;21498;-58
2023/03/11 00:20:44;;;;;;;5.40;4.17;;;;;;;-0.09;79.43;97007.81;1780328;79;20959;-58
2023/03/11 00:23:13;;;;;;;5.15;4.15;;;;;;;-0.06;79.22;97002.08;1779130;78;21953;-59
2023/03/11 00:25:42;;;;;;;5.00;3.80;;;;;;;-0.08;79.25;96997.50;1777240;79;21003;-59
2023/03/11 00:28:10;;;;;;;5.35;3.58;;;;;;;-0.11;79.18;96994.23;1774867;79;21567;-60
2023/03/11 00:30:39;;;;;;;4.62;3.80;;;;;;;-0.14;79.21;96989.25;1775774;79;21093;-60
2023/03/11 00:33:07;;;;;;;5.45;4.05;;;;;;;-0.14;79.39;96985.41;1741732;80;20944;-58
2023/03/11 00:35:35;;;;;;;6.75;4.92;;;;;;;-0.12;79.37;96979.75;1778024;79;21002;-60
2023/03/11 00:38:06;;;;;;;5.90;3.98;;;;;;;-0.14;79.40;96975.14;1778987;79;21675;-66
2023/03/11 00:40:34;;;;;;;5.22;3.65;;;;;;;-0.19;79.27;96975.84;1777472;79;21569;-66
2023/03/11 00:43:02;;;;;;;4.35;3.67;;;;;;;-0.20;79.39;96980.11;1777215;79;20995;-59
2023/03/11 00:45:29;;;;;;;4.10;3.70;;;;;;;-0.23;79.37;96986.22;1780695;79;21014;-66
2023/03/11 00:47:57;;;;;;;3.42;3.12;;;;;;;-0.19;79.46;96991.23;1778306;78;20918;-59
2023/03/11 00:50:28;;;;;;;8.13;4.10;;;;;;;-0.17;79.48;96991.96;1737506;81;21081;-62
2023/03/11 00:52:58;;;;;;;5.95;4.20;;;;;;;-0.20;79.44;96993.39;1737649;80;21078;-62
2023/03/11 00:55:30;;;;;;;8.15;4.62;;;;;;;-0.17;79.51;96991.96;1708503;82;21015;-62
2023/03/11 00:58:01;;;;;;;5.30;4.22;;;;;;;-0.17;79.56;96997.91;1775434;79;21082;-60
2023/03/11 01:00:29;;;;;;;5.85;4.40;;;;;;;-0.18;79.51;97000.57;1776206;79;21580;-59
2023/03/11 01:02:56;;;;;;;5.25;4.00;;;;;;;-0.14;79.76;97002.07;1778656;79;21097;-59
2023/03/11 01:05:26;;;;;;;;;;;;;;;-0.18;79.47;96994.16;1783180;79;20954;-58
2023/03/11 01:07:53;;;;;;;4.70;3.60;;;;;;;-0.15;79.84;96993.55;1778023;78;20429;-59
2023/03/11 01:10:20;;;;;;;4.40;3.85;;;;;;;-0.11;79.80;96999.36;1775522;78;21014;-60
2023/03/11 01:12:47;;;;;;;6.15;4.30;;;;;;;-0.09;79.84;97002.69;1777287;79;21030;-59
2023/03/11 01:15:22;;;;;;;4.50;3.70;;;;;;;-0.07;79.88;97007.30;1778916;79;21069;-58
2023/03/11 01:17:49;;;;;;;4.67;4.00;;;;;;;-0.03;79.85;97015.21;1733102;81;21078;-59
2023/03/11 01:20:16;;;;;;;4.58;3.90;;;;;;;0.01;80.01;97016.74;1711396;80;21010;-58
2023/03/11 01:22:43;;;;;;;4.42;3.60;;;;;;;0.04;79.90;97013.20;1712996;82;20925;-58
2023/03/11 01:25:14;;;;;;;4.65;4.05;;;;;;;0.08;80.13;97005.27;1715977;82;21489;-62
2023/03/11 01:27:42;;;;;;;5.30;4.55;;;;;;;0.10;79.94;97002.18;1715214;82;20941;-60
2023/03/11 01:30:14;;;;;;;5.40;4.25;;;;;;;0.16;80.24;97000.59;1717946;82;20972;-61
2023/03/11 01:32:43;;;;;;;5.25;4.65;;;;;;;0.24;80.17;97000.68;1718542;82;21514;-60
2023/03/11 01:35:13;;;;;;;9.73;5.42;;;;;;;0.26;80.04;97007.86;1712043;82;21110;-62
2023/03/11 01:37:41;;;;;;;6.47;5.42;;;;;;;0.21;80.00;97001.20;1714408;82;20975;-60
2023/03/11 01:40:22;;;;;;;5.28;4.17;;;;;;;0.21;79.90;97007.62;1716251;82;20936;-60
2023/03/11 01:42:49;;;;;;;5.47;4.22;;;;;;;0.16;79.73;97000.59;1705671;82;21566;-58
2023/03/11 01:45:41;;;;;;;4.83;3.95;;;;;;;0.08;79.86;96997.56;1717156;82;21536;-58
2023/03/11 01:48:10;;;;;;;5.72;4.35;;;;;;;0.04;79.86;96990.94;1734462;80;21604;-59
2023/03/11 01:50:43;;;;;;;4.40;4.00;;;;;;;0.02;80.10;96999.16;1742171;80;20957;-61
2023/03/11 01:53:12;;;;;;;5.78;4.15;;;;;;;0.04;80.23;96988.83;1742311;80;21037;-58
2023/03/11 01:55:40;;;;;;;7.42;3.92;;;;;;;0.02;80.08;96991.45;1737565;80;21695;-62
2023/03/11 01:58:11;;;;;;;4.85;3.77;;;;;;;0.03;80.26;96985.87;1708851;82;21122;-58
2023/03/11 02:00:41;;;;;;;4.58;3.40;;;;;;;0.01;80.13;96989.81;1682763;83;21039;-62
2023/03/11 02:03:34;;;;;;;3.95;3.40;;;;;;;-0.05;80.09;96991.39;1736991;81;21546;-60
2023/03/11 02:06:05;;;;;;;4.03;2.90;;;;;;;-0.07;80.13;96991.91;1714993;82;21076;-59
2023/03/11 02:08:33;;;;;;;4.58;3.77;;;;;;;-0.07;80.30;96991.91;1694464;83;21472;-59
2023/03/11 02:11:02;;;;;;;4.22;3.40;;;;;;;-0.05;80.28;96991.39;1670261;83;21941;-62
2023/03/11 02:13:33;;;;;;;4.08;3.30;;;;;;;-0.04;80.26;96987.91;1740594;79;21052;-60
2023/03/11 02:16:01;;;;;;;6.30;3.75;;;;;;;-0.11;80.17;96989.95;1719983;82;21481;-59
2023/03/11 02:18:28;;;;;;;6.15;3.77;;;;;;;-0.12;80.25;96990.02;1719985;81;20951;-59
2023/03/11 02:21:07;;;;;;;5.00;3.37;;;;;;;-0.13;80.32;96988.36;1731288;80;21042;-58
2023/03/11 02:23:38;;;;;;;3.47;3.08;;;;;;;-0.12;80.31;96979.75;1729678;80;21541;-58
2023/03/11 02:26:29;;;;;;;4.67;3.83;;;;;;;-0.15;80.08;96982.47;1715216;81;20965;-58
2023/03/11 02:28:57;;;;;;;6.37;3.92;;;;;;;-0.26;80.10;96982.52;1737923;80;20955;-59
2023/03/11 02:31:25;;;;;;;4.83;3.75;;;;;;;-0.25;80.65;96993.17;1736295;81;20975;-60
2023/03/11 02:33:54;;;;;;;3.60;3.30;;;;;;;-0.14;80.70;96989.25;1733561;81;21575;-59
2023/03/11 02:36:39;;;;;;;5.72;3.27;;;;;;;-0.11;80.63;97001.92;1703036;83;20975;-61
2023/03/11 02:39:07;;;;;;;4.58;3.52;;;;;;;-0.10;80.69;96999.75;1727255;81;20930;-58
2023/03/11 02:41:38;;;;;;;3.75;3.35;;;;;;;-0.10;80.66;97003.60;1739170;80;21043;-58
2023/03/11 02:44:08;;;;;;;4.75;3.12;;;;;;;-0.07;80.62;97003.45;1714008;81;21061;-62
2023/03/11 02:46:38;;;;;;;3.30;3.00;;;;;;;-0.10;80.50;96995.91;1707068;82;20991;-60
2023/03/11 02:49:06;;;;;;;4.40;3.22;;;;;;;-0.13;80.37;97007.60;1711512;82;20972;-59
2023/03/11 02:51:34;;;;;;;4.95;3.87;;;;;;;-0.15;80.58;97000.42;1740288;80;20946;-58
2023/03/11 02:54:04;;;;;;;3.50;3.20;;;;;;;-0.19;80.46;97001.48;1773491;78;21045;-60
2023/03/11 02:56:31;;;;;;;4.53;3.37;;;;;;;-0.18;80.61;97004.41;1779975;79;20963;-58
2023/03/11 02:58:58;;;;;;;5.15;3.30;;;;;;;-0.20;80.41;97000.63;1738485;81;21063;-63
2023/03/11 03:01:24;;;;;;;4.22;3.77;;;;;;;-0.26;80.43;97000.92;1745711;80;20986;-58
2023/03/11 03:03:53;;;;;;;4.37;3.98;;;;;;;-0.28;80.59;96999.73;1746629;80;20957;-58
2023/03/11 03:06:21;;;;;;;4.85;3.92;;;;;;;-0.26;80.69;97004.31;1747947;80;21054;-58
2023/03/11 03:08:48;;;;;;;6.30;3.62;;;;;;;-0.21;80.69;97008.41;1747189;80;21045;-58
2023/03/11 03:11:17;;;;;;;3.98;3.58;;;;;;;-0.24;80.67;97016.62;1748009;80;20997;-59
2023/03/11 03:13:49;;;;;;;4.30;3.67;;;;;;;-0.23;80.79;97019.55;1721326;81;21074;-60
2023/03/11 03:16:15;;;;;;;4.83;3.67;;;;;;;-0.25;80.57;97014.97;1747969;80;21448;-59
2023/03/11 03:18:42;;;;;;;5.30;4.20;;;;;;;-0.28;80.69;97020.25;1752189;80;21038;-59
2023/03/11 03:21:09;;;;;;;4.60;4.10;;;;;;;-0.25;80.85;97031.64;1746325;80;21038;-59
2023/03/11 03:23:36;;;;;;;8.05;4.12;;;;;;;-0.24;80.84;97026.88;1709183;82;21018;-59
2023/03/11 03:26:04;;;;;;;;;;;;;;;-0.21;80.90;97030.21;1751187;80;21041;-59
2023/03/11 03:28:33;;;;;;;4.30;3.58;;;;;;;-0.15;81.04;97027.35;1756141;80;20164;-63
2023/03/11 03:31:05;;;;;;;4.20;3.50;;;;;;;-0.20;80.58;97020.32;1748828;80;21122;-61
2023/03/11 03:33:32;;;;;;;5.25;4.10;;;;;;;-0.28;80.63;97026.66;1746790;80;21004;-62
2023/03/11 03:35:59;;;;;;;4.87;3.40;;;;;;;-0.26;80.87;97029.95;1750910;80;21093;-65
2023/03/11 03:38:27;;;;;;;4.15;3.60;;;;;;;-0.26;80.86;97029.95;1726495;81;21059;-58
2023/03/11 03:40:54;;;;;;;4.70;3.05;;;;;;;-0.24;80.88;97033.29;1727401;81;21112;-58
2023/03/11 03:43:21;;;;;;;4.17;3.27;;;;;;;-0.25;80.84;97050.05;1719686;81;21505;-59
2023/03/11 03:46:05;;;;;;;5.53;3.77;;;;;;;-0.31;80.71;97044.75;1735646;81;21540;-61
2023/03/11 03:48:32;;;;;;;4.08;3.60;;;;;;;-0.34;80.68;97047.43;1724674;81;20966;-62
2023/03/11 03:51:04;;;;;;;6.17;3.80;;;;;;;-0.32;80.92;97058.45;1724603;81;20987;-61
2023/03/11 03:53:33;;;;;;;5.22;3.85;;;;;;;-0.31;80.85;97060.14;1727713;81;21012;-65
2023/03/11 03:56:07;;;;;;;4.45;3.65;;;;;;;-0.35;80.77;97065.46;1729902;81;21116;-59
2023/03/11 03:58:34;;;;;;;3.58;3.27;;;;;;;-0.34;80.90;97058.97;1687171;82;21137;-58
2023/03/11 04:01:02;;;;;;;4.45;3.20;;;;;;;-0.31;81.01;97070.39;1675217;83;20976;-58
2023/03/11 04:03:30;;;;;;;3.98;3.27;;;;;;;-0.31;80.95;97070.39;1673414;83;21057;-58
2023/03/11 04:06:23;;;;;;;4.58;3.72;;;;;;;-0.30;81.03;97070.76;1667874;83;21014;-60
2023/03/11 04:08:53;;;;;;;4.17;2.90;;;;;;;-0.29;81.05;97072.41;1673440;84;21054;-61
2023/03/11 04:11:21;;;;;;;4.80;3.77;;;;;;;-0.23;81.24;97068.28;1670213;84;21013;-58
2023/03/11 04:13:48;;;;;;;4.25;3.45;;;;;;;-0.20;81.12;97075.45;1677458;83;21039;-59
2023/03/11 04:16:23;;;;;;;5.97;3.80;;;;;;;-0.16;81.16;97075.71;1671818;83;21066;-58
2023/03/11 04:18:50;;;;;;;7.58;4.50;;;;;;;-0.21;80.89;97078.94;1670611;83;21062;-59
2023/03/11 04:21:17;;;;;;;4.08;3.37;;;;;;;-0.24;81.04;97071.75;1674329;83;21012;-63
2023/03/11 04:23:44;;;;;;;3.98;3.22;;;;;;;-0.26;80.96;97074.83;1670561;83;21082;-63
2023/03/11 04:26:10;;;;;;;4.03;3.50;;;;;;;-0.27;81.00;97079.59;1674652;83;21538;-61
2023/03/11 04:28:37;;;;;;;5.62;4.00;;;;;;;-0.29;81.00;97083.95;1675051;83;20982;-58
2023/03/11 04:31:04;;;;;;;4.28;3.42;;;;;;;-0.29;81.06;97089.08;1673465;83;21074;-64
2023/03/11 04:33:32;;;;;;;5.80;3.72;;;;;;;-0.28;81.00;97083.06;1658767;84;20999;-58
2023/03/11 04:36:05;;;;;;;4.25;3.17;;;;;;;-0.31;81.05;97090.91;1677035;83;21067;-59
2023/03/11 04:38:31;;;;;;;7.85;3.95;;;;;;;-0.31;81.07;97089.63;1675531;83;21042;-58
2023/03/11 04:41:05;;;;;;;5.10;3.55;;;;;;;-0.32;81.07;97089.22;1676204;84;21033;-62
2023/03/11 04:43:34;;;;;;;6.12;3.90;;;;;;;-0.32;81.12;97086.66;1673326;82;21053;-59
2023/03/11 04:46:00;;;;;;;5.45;3.62;;;;;;;-0.29;81.18;97085.23;1734653;81;21013;-62
2023/03/11 04:48:27;;;;;;;6.58;3.77;;;;;;;-0.30;81.05;97087.42;1734837;81;21635;-59
2023/03/11 04:50:54;;;;;;;6.78;3.85;;;;;;;-0.32;81.05;97090.95;1735738;81;21002;-64
2023/03/11 04:53:21;;;;;;;5.95;3.77;;;;;;;-0.33;81.03;97097.83;1736076;81;21081;-66
2023/03/11 04:55:49;;;;;;;5.75;3.90;;;;;;;-0.32;81.03;97101.22;1733625;81;21003;-61
2023/03/11 04:58:16;;;;;;;6.95;4.37;;;;;;;-0.28;81.23;97108.71;1740814;80;21045;-60
2023/03/11 05:00:42;;;;;;;7.43;4.00;;;;;;;-0.26;81.17;97109.45;1741095;81;21050;-61
2023/03/11 05:03:09;;;;;;;6.85;3.92;;;;;;;-0.25;81.12;97109.85;1740388;80;21030;-58
2023/03/11 05:05:36;;;;;;;4.95;3.50;;;;;;;-0.27;81.00;97110.36;1711838;82;21945;-65
2023/03/11 05:08:04;;;;;;;4.42;3.40;;;;;;;-0.32;80.95;97113.58;1723406;81;21507;-59
2023/03/11 05:10:30;;;;;;;4.97;3.55;;;;;;;-0.30;81.04;97116.91;1715085;81;20986;-63
2023/03/11 05:12:57;;;;;;;4.55;3.72;;;;;;;-0.30;81.02;97120.77;1720980;80;21335;-57
2023/03/11 05:15:23;;;;;;;6.05;3.08;;;;;;;-0.28;81.04;97124.09;1724706;81;21011;-59
2023/03/11 05:17:51;;;;;;;6.47;3.72;;;;;;;-0.28;80.99;97121.53;1729169;81;21050;-59
2023/03/11 05:20:21;;;;;;;6.67;3.65;;;;;;;-0.29;81.03;97126.72;1725735;82;22286;-58
2023/03/11 05:22:50;;;;;;;5.30;4.03;;;;;;;-0.28;81.07;97133.07;1721618;82;21011;-59
2023/03/11 05:25:19;;;;;;;6.20;4.45;;;;;;;-0.27;80.99;97138.56;1724386;81;20988;-64
2023/03/11 05:27:45;;;;;;;6.62;3.98;;;;;;;-0.25;81.14;97144.47;1733293;81;20962;-59
2023/03/11 05:30:14;;;;;;;3.50;2.93;;;;;;;-0.23;81.13;97140.08;1744909;80;21030;-61
2023/03/11 05:32:40;;;;;;;4.50;3.25;;;;;;;-0.23;81.01;97140.08;1785551;77;21038;-59
2023/03/11 05:35:08;;;;;;;5.30;3.45;;;;;;;-0.23;81.02;97147.77;1779471;77;20983;-59
2023/03/11 05:37:37;;;;;;;5.25;3.60;;;;;;;-0.21;81.01;97152.02;1778239;79;21022;-58
2023/03/11 05:40:06;;;;;;;4.65;3.10;;;;;;;-0.23;81.00;97152.91;1739171;80;21034;-58
2023/03/11 05:42:34;;;;;;;5.83;3.27;;;;;;;-0.23;80.98;97161.88;1742026;80;21050;-61
2023/03/11 05:45:03;;;;;;;5.55;2.90;;;;;;;-0.26;80.91;97168.42;1710131;83;21055;-58
2023/03/11 05:47:30;;;;;;;7.58;3.42;;;;;;;-0.27;81.00;97171.91;1717445;82;21133;-62
2023/03/11 05:49:57;;;;;;;4.63;3.27;;;;;;;-0.28;80.95;97168.97;1722478;82;21070;-66
2023/03/11 05:52:23;;;;;;;3.87;3.00;;;;;;;-0.28;80.97;97165.13;1717304;82;20945;-59
2023/03/11 05:54:52;;;;;;;5.83;2.87;;;;;;;-0.28;81.03;97174.09;1716754;81;21082;-60
2023/03/11 05:57:19;;;;;;;4.67;3.40;;;;;;;-0.27;81.04;97169.34;1709020;82;21019;-58
2023/03/11 05:59:46;;;;;;;;;;;;;;;-0.31;80.86;97188.34;1704569;82;21024;-58
2023/03/11 06:02:13;;;;;;;4.28;3.10;;;;;;;-0.32;80.90;97190.50;1714551;82;20108;-58
2023/03/11 06:04:40;;;;;;;4.85;3.20;;;;;;;-0.28;81.08;97194.61;1717598;82;21008;-59
2023/03/11 06:07:06;;;;;;;5.00;3.72;;;;;;;-0.27;81.00;97198.83;1718881;82;21051;-58
2023/03/11 06:09:35;;;;;;;4.95;3.55;;;;;;;-0.29;80.92;97203.19;1715477;82;21579;-60
2023/03/11 06:12:05;;;;;;;3.90;3.10;;;;;;;-0.31;80.92;97202.44;1708723;82;21889;-61
2023/03/11 06:14:31;;;;;;;3.65;2.95;;;;;;;-0.31;80.98;97212.70;1719350;82;21113;-64
2023/03/11 06:16:59;;;;;;;6.17;3.75;;;;;;;-0.29;81.03;97217.28;1713842;82;21523;-59
2023/03/11 06:19:26;;;;;;;3.40;3.10;;;;;;;-0.24;81.00;97220.48;1716894;82;21122;-58
2023/03/11 06:21:52;;;;;;;3.83;3.22;;;;;;;-0.21;80.93;97222.55;1712528;81;21029;-61
2023/03/11 06:24:19;;;;;;;5.80;2.80;;;;;;;-0.20;80.88;97221.63;1718557;82;21085;-59
2023/03/11 06:26:52;;;;;;;5.08;3.42;;;;;;;-0.15;80.92;97226.11;1708031;81;21494;-59
2023/03/11 06:29:23;;;;;;;5.45;4.33;;;;;;;-0.12;80.84;97234.50;1714945;82;20947;-62
2023/03/11 06:31:49;;;;;;;4.00;3.30;;;;;;;-0.08;80.86;97235.22;1715889;80;21316;-60
2023/03/11 06:34:16;;;;;;;4.50;3.70;;;;;;;-0.04;80.81;97247.00;1718477;82;20986;-58
2023/03/11 06:36:43;;;;;;;5.10;3.87;;;;;;;-0.06;80.69;97251.35;1711284;82;21021;-59
2023/03/11 06:39:14;;;;;;;4.33;3.60;;;;;;;-0.03;80.73;97257.63;1715642;82;21021;-58
2023/03/11 06:41:41;;;;;;;4.62;3.37;;;;;;;-0.06;80.57;97261.61;1720422;82;20991;-60
2023/03/11 06:44:12;;;;;;;5.10;3.85;;;;;;;-0.08;80.64;97266.00;1683761;82;21039;-58
2023/03/11 06:46:39;;;;;;;5.05;3.58;;;;;;;-0.10;80.58;97269.07;1715299;82;20991;-61
2023/03/11 06:49:06;;;;;;;7.90;4.25;;;;;;;-0.08;80.72;97268.56;1708855;82;21078;-59
2023/03/11 06:51:33;;;;;;;5.75;3.87;;;;;;;-0.06;80.61;97282.13;1694579;82;21681;-61
2023/03/11 06:54:00;;;;;;;4.92;3.65;;;;;;;-0.04;80.56;97290.61;1683066;83;21598;-59
2023/03/11 06:56:29;;;;;;;4.92;3.58;;;;;;;-0.01;80.59;97290.02;1707271;82;21520;-61
2023/03/11 06:59:00;;;;;;;6.37;4.05;;;;;;;0.02;80.59;97292.89;1703209;80;21008;-65
2023/03/11 07:01:27;;;;;;;5.55;4.15;;;;;;;-0.01;80.39;97300.73;1762180;79;21508;-61
2023/03/11 07:03:54;;;;;;;4.85;3.55;;;;;;;0.00;80.45;97302.42;1758883;79;22379;-61
2023/03/11 07:06:27;;;;;;;5.13;3.90;;;;;;;0.02;80.49;97310.86;1768482;79;21549;-64
2023/03/11 07:08:54;;;;;;;4.75;3.77;;;;;;;0.06;80.42;97316.71;1766230;79;21231;-62
2023/03/11 07:11:25;;;;;;;4.92;3.10;;;;;;;-0.01;80.22;97323.81;1762763;79;21449;-58
2023/03/11 07:13:53;;;;;;;4.28;2.95;;;;;;;-0.01;80.35;97321.25;1766212;79;20929;-58
2023/03/11 07:16:24;;;;;;;4.87;2.92;;;;;;;0.06;80.41;97340.63;1769119;79;21549;-58
2023/03/11 07:18:57;;;;;;;4.67;3.00;;;;;;;0.10;80.42;97334.45;1763196;79;21666;-59
2023/03/11 07:21:23;;;;;;;5.65;2.90;;;;;;;0.11;80.29;97334.86;1766872;79;20928;-58
2023/03/11 07:23:55;;;;;;;;;;;;;;;0.06;80.19;97340.63;1769586;79;20987;-58
2023/03/11 07:26:23;;;;;;;3.22;2.52;;;;;;;0.09;80.18;97343.06;1760944;79;20155;-59
2023/03/11 07:28:50;;;;;;;3.65;2.95;;;;;;;0.10;80.17;97349.84;1753770;79;21591;-58
2023/03/11 07:31:20;;;;;;;5.97;2.90;;;;;;;0.06;80.04;97345.77;1735289;81;21026;-59
2023/03/11 07:33:47;;;;;;;4.40;3.22;;;;;;;0.05;79.99;97354.34;1737582;81;21065;-59
2023/03/11 07:36:17;;;;;;;5.80;2.87;;;;;;;0.04;79.94;97361.66;1709339;82;21964;-62
2023/03/11 07:38:45;;;;;;;5.70;3.58;;;;;;;0.02;79.81;97368.58;1711118;82;22289;-62
2023/03/11 07:41:15;;;;;;;;;;;;;;;0.02;79.93;97372.43;1708007;82;21550;-59
2023/03/11 07:43:43;;;;;;;3.90;3.25;;;;;;;0.01;79.77;97377.64;1696915;81;20216;-59
2023/03/11 07:46:17;;;;;;;5.08;3.27;;;;;;;0.02;79.90;97382.69;1707718;80;21022;-65
2023/03/11 07:48:45;;;;;;;4.20;3.05;;;;;;;0.03;79.74;97394.64;1735699;81;21002;-60
2023/03/11 07:51:19;;;;;;;4.12;2.95;;;;;;;-0.03;79.64;97392.31;1707133;82;21031;-60
2023/03/11 07:53:48;;;;;;;3.47;2.83;;;;;;;0.02;79.86;97390.39;1703311;82;21035;-73
2023/03/11 07:56:19;;;;;;;5.58;2.92;;;;;;;0.13;79.81;97394.62;1734297;81;20997;-60
2023/03/11 07:58:45;;;;;;;3.10;2.80;;;;;;;0.28;79.79;97398.71;1716438;82;21055;-59
2023/03/11 08:01:16;;;;;;;3.33;2.72;;;;;;;0.34;79.64;97397.19;1717997;82;20990;-59
2023/03/11 08:03:46;;;;;;;5.45;2.72;;;;;;;0.43;79.66;97408.33;1717848;82;21529;-60
2023/03/11 08:06:20;;;;;;;4.75;2.77;;;;;;;0.45;79.49;97407.83;1726131;81;21105;-59
2023/03/11 08:08:50;;;;;;;5.03;2.85;;;;;;;0.46;79.39;97410.77;1721501;82;21026;-60
2023/03/11 08:11:19;;;;;;;6.42;2.92;;;;;;;0.46;79.25;97414.61;1718277;82;21501;-60
2023/03/11 08:13:47;;;;;;;5.05;3.52;;;;;;;0.43;79.30;97409.61;1723201;82;21030;-62
2023/03/11 08:16:17;;;;;;;5.87;3.98;;;;;;;0.41;79.34;97422.96;1714975;82;21011;-61
2023/03/11 08:18:47;;;;;;;6.00;3.72;;;;;;;0.47;79.31;97429.11;1750807;80;21069;-66
2023/03/11 08:21:17;;;;;;;9.35;4.30;;;;;;;0.53;79.49;97436.54;1742264;80;21124;-60
2023/03/11 08:23:49;;;;;;;6.50;3.67;;;;;;;0.64;79.47;97433.08;1692951;82;21025;-59
2023/03/11 08:26:17;;;;;;;7.10;3.35;;;;;;;0.71;79.25;97444.36;1723658;81;21039;-61
2023/03/11 08:28:45;;;;;;;9.43;3.65;;;;;;;0.73;79.12;97448.96;1739837;80;20908;-62
2023/03/11 08:31:19;;;;;;;;;;;;;;;0.75;79.13;97452.30;1741673;80;20979;-61
2023/03/11 08:33:49;;;;;;;6.28;3.22;;;;;;;0.75;79.00;97445.88;1704584;82;20437;-60
2023/03/11 08:36:18;;;;;;;6.85;3.67;;;;;;;0.74;78.89;97451.48;1744783;81;21458;-60
2023/03/11 08:38:44;;;;;;;5.53;3.65;;;;;;;0.72;78.89;97448.13;1712147;82;21033;-61
2023/03/11 08:41:11;;;;;;;7.10;3.33;;;;;;;0.72;78.90;97462.72;1708062;82;21110;-62
2023/03/11 08:43:38;;;;;;;6.10;3.15;;;;;;;0.74;78.91;97473.77;1702875;82;21050;-70
2023/03/11 08:46:06;;;;;;;5.33;3.15;;;;;;;0.76;78.79;97480.97;1714822;82;21023;-65
2023/03/11 08:48:34;;;;;;;7.92;3.60;;;;;;;0.78;78.75;97484.28;1714951;82;21042;-62
2023/03/11 08:51:01;;;;;;;4.47;3.02;;;;;;;0.85;78.76;97476.70;1716391;81;21048;-64
2023/03/11 08:53:28;;;;;;;4.17;3.02;;;;;;;0.91;78.71;97491.84;1716658;82;20951;-64
2023/03/11 08:55:55;;;;;;;3.92;2.83;;;;;;;1.00;78.44;97486.28;1744525;80;20963;-64
2023/03/11 08:58:22;;;;;;;3.62;3.08;;;;;;;1.02;78.46;97481.92;1746220;80;21105;-62
2023/03/11 09:00:48;;;;;;;4.55;3.42;;;;;;;1.10;78.42;97492.70;1731350;81;20970;-62
2023/03/11 09:03:17;;;;;;;6.12;3.27;;;;;;;1.08;78.30;97499.63;1730007;81;21073;-62
2023/03/11 09:05:47;;;;;;;5.25;3.92;;;;;;;1.10;78.26;97515.00;1726677;81;21053;-60
2023/03/11 09:08:13;;;;;;;6.80;3.45;;;;;;;1.07;78.31;97515.97;1702487;82;20979;-61
2023/03/11 09:10:40;;;;;;;6.47;3.50;;;;;;;1.03;78.13;97510.56;1717941;82;21113;-65
2023/03/11 09:13:07;;;;;;;5.97;4.17;;;;;;;1.07;78.15;97526.25;1713911;82;21058;-66
2023/03/11 09:15:35;;;;;;;3.75;2.80;;;;;;;1.09;78.03;97528.73;1716583;82;21379;-63
2023/03/11 09:18:02;;;;;;;5.35;3.10;;;;;;;1.14;77.92;97533.68;1714302;82;21472;-63
2023/03/11 09:20:29;;;;;;;4.95;3.60;;;;;;;1.23;78.09;97536.69;1708720;82;21552;-60
2023/03/11 09:22:55;;;;;;;7.03;3.40;;;;;;;1.27;77.88;97534.81;1718946;82;20951;-68
2023/03/11 09:25:22;;;;;;;5.70;2.98;;;;;;;1.33;77.60;97539.67;1714542;82;21007;-63
2023/03/11 09:27:49;;;;;;;4.28;3.45;;;;;;;1.28;77.51;97551.89;1719050;82;21016;-63
2023/03/11 09:30:17;;;;;;;4.58;3.10;;;;;;;1.30;77.52;97561.20;1711556;81;21028;-65
2023/03/11 09:32:46;;;;;;;5.90;3.20;;;;;;;1.33;77.53;97566.21;1716165;82;20967;-66
2023/03/11 09:35:12;;;;;;;4.30;3.22;;;;;;;1.39;77.54;97570.25;1725113;82;21022;-66
2023/03/11 09:37:39;;;;;;;5.30;3.00;;;;;;;1.45;77.02;97582.83;1720490;82;21068;-66
2023/03/11 09:40:07;;;;;;;5.85;3.62;;;;;;;1.45;77.10;97575.56;1741896;80;21381;-69
2023/03/11 09:43:04;;;;;;;12.55;2.80;;;;;;;1.41;76.97;97583.88;1746790;80;21577;-70
2023/03/11 09:45:35;;;;;;;9.08;3.15;;;;;;;1.41;77.03;97586.45;1743868;80;20967;-70
2023/03/11 09:48:09;;;;;;;5.40;3.12;;;;;;;1.39;76.89;97598.98;1714141;82;21560;-66
2023/03/11 09:50:47;;;;;;;3.92;2.47;;;;;;;1.39;76.95;97598.53;1743053;80;21086;-65
2023/03/11 09:53:31;;;;;;;5.08;3.00;;;;;;;1.49;76.71;97598.98;1740750;80;21077;-65
2023/03/11 09:56:00;;;;;;;6.00;2.98;;;;;;;1.46;76.58;97611.52;1741877;80;20952;-67
2023/03/11 09:58:49;;;;;;;5.62;3.10;;;;;;;1.50;76.42;97622.04;1745054;80;21106;-67
2023/03/11 10:01:41;;;;;;;2.77;2.47;;;;;;;1.44;76.00;97627.45;1739910;80;21063;-72
2023/03/11 10:04:12;;;;;;;3.42;2.45;;;;;;;1.39;76.16;97629.39;1723905;82;21005;-66
2023/03/11 10:06:45;;;;;;;5.53;3.27;;;;;;;1.39;75.90;97625.53;1731757;81;21089;-68
2023/03/11 10:09:29;;;;;;;5.03;3.45;;;;;;;1.33;75.39;97632.23;1723801;82;21556;-68
2023/03/11 10:12:22;;;;;;;4.20;2.15;;;;;;;1.32;75.71;97644.72;1741128;80;21528;-71
2023/03/11 10:15:15;;;;;;;4.37;2.90;;;;;;;1.28;75.51;97652.16;1742483;80;20920;-65
2023/03/11 10:18:21;;;;;;;4.67;3.10;;;;;;;1.19;75.14;97653.84;1723340;81;20995;-70
2023/03/11 10:21:04;;;;;;;4.45;2.67;;;;;;;1.25;75.31;97645.41;1717719;81;20948;-66
2023/03/11 10:24:18;;;;;;;4.12;2.50;;;;;;;1.30;75.23;97655.51;1708671;82;21101;-67
2023/03/11 10:26:51;;;;;;;4.78;2.20;;;;;;;1.34;75.10;97657.03;1717677;82;20997;-64
2023/03/11 10:29:31;;;;;;;5.45;3.22;;;;;;;1.33;74.92;97669.52;1739240;80;20935;-66
2023/03/11 10:32:18;;;;;;;6.78;2.30;;;;;;;1.39;74.30;97669.25;1738579;80;21002;-66
2023/03/11 10:35:08;;;;;;;2.77;1.80;;;;;;;1.36;74.51;97671.95;1732036;80;21013;-65
2023/03/11 10:37:48;;;;;;;6.17;2.30;;;;;;;1.44;74.71;97673.75;1730305;80;21089;-64
2023/03/11 10:40:36;;;;;;;4.28;2.22;;;;;;;1.52;74.59;97681.97;1732654;80;21073;-67
2023/03/11 10:43:08;;;;;;;4.42;2.12;;;;;;;1.59;73.62;97668.83;1701777;82;20987;-58
2023/03/11 10:45:40;;;;;;;6.37;2.27;;;;;;;1.53;74.03;97681.05;1741731;80;21025;-69
2023/03/11 10:48:13;;;;;;;4.15;2.30;;;;;;;1.47;73.99;97681.33;1724716;82;21019;-70
2023/03/11 10:51:03;;;;;;;5.53;2.52;;;;;;;1.44;73.50;97694.32;1715631;82;21034;-70
2023/03/11 10:53:30;;;;;;;5.87;2.50;;;;;;;1.34;73.83;97688.75;1738119;80;21102;-69
2023/03/11 10:55:59;;;;;;;4.95;2.55;;;;;;;1.27;73.65;97698.06;1705337;82;21550;-62
2023/03/11 10:58:29;;;;;;;3.55;2.10;;;;;;;1.15;73.63;97697.27;1741382;80;20971;-70
2023/03/11 11:01:06;;;;;;;4.20;2.75;;;;;;;1.09;73.74;97708.22;1727114;81;21111;-69
2023/03/11 11:03:36;;;;;;;5.07;2.90;;;;;;;1.06;73.59;97701.89;1725961;81;20945;-70
2023/03/11 11:06:08;;;;;;;3.90;2.62;;;;;;;1.05;73.65;97702.80;1729144;81;21229;-70
2023/03/11 11:08:34;;;;;;;4.25;2.47;;;;;;;1.00;73.57;97704.72;1729321;81;21044;-70
2023/03/11 11:11:05;;;;;;;4.33;2.20;;;;;;;0.98;73.60;97719.39;1732633;81;20994;-62
2023/03/11 11:13:34;;;;;;;5.17;2.05;;;;;;;0.98;73.53;97719.39;1696456;83;21001;-69
2023/03/11 11:16:17;;;;;;;5.90;2.10;;;;;;;1.01;73.56;97728.25;1694496;83;20977;-67
2023/03/11 11:19:01;;;;;;;4.55;2.30;;;;;;;1.07;73.50;97728.00;1729870;81;21437;-70
2023/03/11 11:21:42;;;;;;;4.35;2.77;;;;;;;1.08;73.32;97730.95;1692439;82;21340;-71
2023/03/11 11:24:19;;;;;;;8.35;2.92;;;;;;;1.07;73.24;97742.14;1696888;82;20973;-70
2023/03/11 11:27:17;;;;;;;10.75;3.60;;;;;;;1.06;72.99;97739.61;1726410;81;20972;-70
2023/03/11 11:29:45;;;;;;;6.97;3.22;;;;;;;1.03;72.94;97735.43;1735662;81;20987;-66
2023/03/11 11:32:25;;;;;;;6.37;2.83;;;;;;;1.09;73.12;97736.49;1709525;81;20998;-70
2023/03/11 11:35:07;;;;;;;7.35;2.95;;;;;;;1.18;72.87;97740.88;1706137;81;21018;-70
2023/03/11 11:37:45;;;;;;;6.87;2.75;;;;;;;1.32;72.72;97743.70;1714113;81;21334;-70
2023/03/11 11:40:18;;;;;;;4.00;2.30;;;;;;;1.56;72.66;97763.23;1697368;82;21089;-67
2023/03/11 11:43:02;;;;;;;5.83;2.50;;;;;;;1.66;72.21;97762.41;1691012;82;21054;-66
2023/03/11 11:45:57;;;;;;;4.50;2.12;;;;;;;1.79;72.44;97760.13;1689201;83;21044;-70
2023/03/11 11:48:40;;;;;;;5.28;2.10;;;;;;;1.78;71.97;97770.05;1729669;81;20941;-66
2023/03/11 11:51:18;;;;;;;3.58;2.20;;;;;;;1.68;72.06;97758.47;1730112;81;21034;-68
2023/03/11 11:54:17;;;;;;;3.20;1.65;;;;;;;1.71;72.24;97768.63;1726549;81;21083;-68
2023/03/11 11:56:45;;;;;;;3.30;2.45;;;;;;;1.85;72.39;97766.32;1734123;81;21003;-64